Time;durP1;ratioP1;P1;durP2;ratioP2;P2;SDS_P1;SDS_P2;PMS_P1;PMS_P2;Temp;Humidity;BMP_temperature;BMP_pressure;BME280_temperature;BME280_humidity;BME280_pressure;Samples;Min_cycle;Max_cycle;Signal;HPM_P1;HPM_P2
2021/11/05 07:24:38;;;;;;;19.20;12.35;;;5.00;99.90;;;;;;5122414;27;21171;-80
2021/11/05 07:27:04;;;;;;;21.13;11.60;;;5.00;99.90;;;;;;5126612;28;20016;-81
2021/11/05 07:29:31;;;;;;;17.33;11.27;;;5.00;99.90;;;;;;5119590;28;20494;-80
2021/11/05 07:32:00;;;;;;;17.50;11.85;;;5.10;99.90;;;;;;5118896;28;20073;-81
2021/11/05 07:34:30;;;;;;;19.88;11.63;;;5.10;99.90;;;;;;5122427;28;20049;-81
2021/11/05 07:37:04;;;;;;;22.17;12.45;;;5.20;99.90;;;;;;5123768;28;20513;-81
2021/11/05 07:39:30;;;;;;;23.58;11.27;;;5.20;99.90;;;;;;5122029;28;20026;-82
2021/11/05 07:41:56;;;;;;;19.70;11.98;;;5.30;99.90;;;;;;5122682;28;20019;-82
2021/11/05 07:44:22;;;;;;;23.10;12.13;;;5.40;99.90;;;;;;5120739;28;20027;-82
2021/11/05 07:46:48;;;;;;;22.08;13.13;;;5.60;99.90;;;;;;5118904;28;20051;-81
2021/11/05 07:49:15;;;;;;;24.35;13.75;;;5.70;99.90;;;;;;5125932;28;20585;-81
2021/11/05 07:51:41;;;;;;;22.02;13.65;;;5.80;99.90;;;;;;5123737;28;20472;-81
2021/11/05 07:54:07;;;;;;;21.80;12.05;;;5.90;99.90;;;;;;5120518;28;20027;-83
2021/11/05 07:56:34;;;;;;;26.42;12.50;;;6.00;99.90;;;;;;5116397;28;20047;-81
2021/11/05 07:59:00;;;;;;;25.33;12.18;;;6.10;99.90;;;;;;5111097;28;20036;-84
2021/11/05 08:01:26;;;;;;;28.65;12.77;;;6.20;99.90;;;;;;5114388;28;20031;-79
2021/11/05 08:03:52;;;;;;;21.08;11.82;;;6.30;99.90;;;;;;5114096;28;20020;-82
2021/11/05 08:06:17;;;;;;;24.63;12.82;;;6.40;99.90;;;;;;5122698;28;20565;-83
2021/11/05 08:08:43;;;;;;;22.27;11.00;;;6.50;99.90;;;;;;5117568;28;20023;-82
2021/11/05 08:11:10;;;;;;;22.48;11.93;;;6.50;99.90;;;;;;5119688;28;20101;-81
2021/11/05 08:13:36;;;;;;;22.17;11.25;;;6.60;99.90;;;;;;5110027;28;20032;-82
2021/11/05 08:16:02;;;;;;;18.73;11.20;;;6.70;99.90;;;;;;5120947;28;20668;-82
2021/11/05 08:18:28;;;;;;;18.83;11.65;;;6.70;99.90;;;;;;5117595;28;20023;-81
2021/11/05 08:20:53;;;;;;;22.23;9.93;;;6.80;99.90;;;;;;5123626;28;20085;-84
2021/11/05 08:23:19;;;;;;;19.15;10.45;;;6.90;99.90;;;;;;5120505;28;20096;-82
2021/11/05 08:25:47;;;;;;;17.95;9.57;;;7.00;99.90;;;;;;5120195;28;20019;-82
2021/11/05 08:28:16;;;;;;;23.50;11.00;;;7.10;99.90;;;;;;5114542;28;20011;-81
2021/11/05 08:30:43;;;;;;;18.38;9.35;;;7.10;99.90;;;;;;5112835;28;20611;-83
2021/11/05 08:33:09;;;;;;;22.98;9.52;;;7.20;99.90;;;;;;5113748;28;20020;-80
2021/11/05 08:35:36;;;;;;;17.95;9.43;;;7.30;99.90;;;;;;5108474;28;20482;-81
2021/11/05 08:38:04;;;;;;;19.15;9.43;;;7.40;99.90;;;;;;5102828;28;20035;-81
2021/11/05 08:40:30;;;;;;;20.65;9.85;;;7.40;99.90;;;;;;5107462;28;20024;-82
2021/11/05 08:42:56;;;;;;;16.73;8.75;;;7.40;99.90;;;;;;5104070;28;20402;-81
2021/11/05 08:45:22;;;;;;;18.52;9.00;;;7.50;99.90;;;;;;5107297;28;20016;-80
2021/11/05 08:47:48;;;;;;;15.88;7.93;;;7.60;99.90;;;;;;5101135;28;20016;-82
2021/11/05 08:50:18;;;;;;;13.85;7.88;;;7.60;99.90;;;;;;5099801;28;20103;-83
2021/11/05 08:52:44;;;;;;;12.05;8.13;;;7.70;99.90;;;;;;5096659;28;20024;-82
2021/11/05 08:55:11;;;;;;;14.70;7.50;;;7.70;99.90;;;;;;5100418;28;20036;-83
2021/11/05 08:57:37;;;;;;;13.93;6.95;;;7.80;99.90;;;;;;5103048;28;20038;-81
2021/11/05 09:00:08;;;;;;;11.15;5.95;;;7.80;99.90;;;;;;5098292;28;20473;-81
2021/11/05 09:02:34;;;;;;;13.43;7.15;;;7.90;99.90;;;;;;5102915;28;20124;-81
2021/11/05 09:04:59;;;;;;;10.00;6.38;;;7.90;99.90;;;;;;5103208;28;20055;-81
2021/11/05 09:07:26;;;;;;;16.30;5.97;;;7.90;99.90;;;;;;5104303;28;20055;-80
2021/11/05 09:09:52;;;;;;;17.58;7.65;;;8.00;99.90;;;;;;5097067;28;20024;-81
2021/11/05 09:12:18;;;;;;;9.13;5.85;;;8.10;99.90;;;;;;5100979;28;20478;-81
2021/11/05 09:14:44;;;;;;;9.65;5.43;;;8.10;99.90;;;;;;5108033;28;20047;-82
2021/11/05 09:17:09;;;;;;;10.23;5.35;;;8.20;99.90;;;;;;5099617;28;20032;-82
2021/11/05 09:19:35;;;;;;;10.35;4.80;;;8.30;99.90;;;;;;5109319;28;20024;-82
2021/11/05 09:22:00;;;;;;;6.35;4.82;;;8.40;99.90;;;;;;5102572;28;20045;-81
2021/11/05 09:24:26;;;;;;;7.22;4.15;;;8.40;99.90;;;;;;5105595;28;20084;-82
2021/11/05 09:26:52;;;;;;;12.00;4.80;;;8.50;99.90;;;;;;5097335;28;20118;-83
2021/11/05 09:29:18;;;;;;;11.80;6.38;;;8.50;99.90;;;;;;5105327;28;20455;-81
2021/11/05 09:31:44;;;;;;;11.00;5.57;;;8.60;99.90;;;;;;5104178;28;20020;-81
2021/11/05 09:34:10;;;;;;;9.50;4.68;;;8.70;99.90;;;;;;5102465;28;20051;-81
2021/11/05 09:36:35;;;;;;;10.32;5.72;;;8.70;99.90;;;;;;5103508;28;20093;-82
2021/11/05 09:39:02;;;;;;;9.25;4.70;;;8.80;99.90;;;;;;5104405;28;21156;-83
2021/11/05 09:41:28;;;;;;;7.70;4.45;;;8.80;99.90;;;;;;5098859;28;20083;-82
2021/11/05 09:43:54;;;;;;;9.43;5.07;;;8.90;99.90;;;;;;5099937;28;20080;-81
2021/11/05 09:46:20;;;;;;;6.65;4.45;;;8.90;99.90;;;;;;5097682;28;20082;-83
2021/11/05 09:48:46;;;;;;;11.35;4.88;;;8.90;99.90;;;;;;5104111;28;20028;-82
2021/11/05 09:51:12;;;;;;;5.95;4.28;;;9.00;99.90;;;;;;5100518;28;20022;-82
2021/11/05 09:53:38;;;;;;;10.48;4.20;;;9.00;99.90;;;;;;5107373;28;20500;-83
2021/11/05 09:56:08;;;;;;;8.50;4.22;;;9.00;99.90;;;;;;5103539;28;20071;-82
2021/11/05 09:58:42;;;;;;;10.95;4.15;;;9.10;99.90;;;;;;5101717;28;20026;-82
2021/11/05 10:01:08;;;;;;;6.95;4.25;;;9.10;99.90;;;;;;5105489;28;20448;-83
2021/11/05 10:03:34;;;;;;;11.13;3.72;;;9.20;99.90;;;;;;5107468;28;20026;-83
2021/11/05 10:06:00;;;;;;;4.68;3.25;;;9.20;99.90;;;;;;5105301;28;20020;-82
2021/11/05 17:03:12;;;;;;;4.45;2.42;;;9.00;99.90;;;;;;5093912;27;20386;-81
2021/11/05 17:05:38;;;;;;;3.72;1.60;;;9.00;99.90;;;;;;5092942;28;20032;-81
2021/11/05 17:08:05;;;;;;;2.97;1.88;;;9.00;99.90;;;;;;5090206;28;20032;-81
2021/11/05 17:10:31;;;;;;;11.05;2.33;;;9.00;99.90;;;;;;5069779;28;20021;-80
2021/11/05 17:12:57;;;;;;;5.18;4.45;;;9.00;99.90;;;;;;5069428;28;20029;-80
2021/11/05 17:15:22;;;;;;;6.80;2.47;;;8.90;99.90;;;;;;5069742;28;20423;-80
2021/11/05 17:17:49;;;;;;;8.00;2.38;;;8.90;99.90;;;;;;5063359;28;20040;-81
2021/11/05 17:20:17;;;;;;;5.47;1.65;;;8.90;99.90;;;;;;5062481;28;20033;-79
2021/11/05 17:22:44;;;;;;;3.17;1.63;;;8.90;99.90;;;;;;5064726;28;20028;-80
2021/11/05 17:25:11;;;;;;;1.73;1.30;;;8.90;99.90;;;;;;5067446;28;20040;-81
2021/11/05 17:27:37;;;;;;;6.65;2.97;;;8.90;99.90;;;;;;5066588;28;20494;-81
2021/11/05 17:30:05;;;;;;;6.60;3.15;;;8.90;99.90;;;;;;5067697;28;20024;-81
2021/11/05 17:32:31;;;;;;;5.85;4.47;;;8.90;99.90;;;;;;5066602;28;20029;-80
2021/11/05 17:34:57;;;;;;;15.93;10.70;;;8.90;99.90;;;;;;5066664;28;20035;-81
2021/11/05 17:37:23;;;;;;;10.27;4.28;;;8.90;99.90;;;;;;5065923;28;20145;-81
2021/11/05 17:39:53;;;;;;;9.18;4.45;;;8.90;99.90;;;;;;5066475;28;20059;-81
2021/11/05 17:42:19;;;;;;;4.80;2.47;;;8.80;99.90;;;;;;5066550;28;20404;-80
2021/11/05 17:44:45;;;;;;;9.25;2.35;;;8.80;99.90;;;;;;5065698;28;20424;-80
2021/11/05 17:47:11;;;;;;;5.95;2.50;;;8.80;99.90;;;;;;5065829;28;20124;-80
2021/11/05 17:49:37;;;;;;;4.50;1.23;;;8.80;99.90;;;;;;5065925;28;20056;-81
2021/11/05 17:52:03;;;;;;;5.38;1.83;;;8.80;99.90;;;;;;5066171;28;20063;-80
2021/11/05 17:54:28;;;;;;;5.70;1.65;;;8.80;99.90;;;;;;5067476;28;20064;-80
2021/11/05 17:56:55;;;;;;;4.72;1.70;;;8.80;99.90;;;;;;5066410;28;20032;-80
2021/11/05 17:59:20;;;;;;;6.50;2.38;;;8.80;99.90;;;;;;5068591;28;20446;-81
2021/11/05 18:01:47;;;;;;;3.50;1.90;;;8.70;99.90;;;;;;5068724;28;20037;-81
2021/11/05 18:04:23;;;;;;;5.13;1.90;;;8.70;99.90;;;;;;5071986;28;20033;-80
2021/11/05 18:06:49;;;;;;;4.78;1.92;;;8.70;99.90;;;;;;5067522;28;20147;-81
2021/11/05 18:09:15;;;;;;;3.92;1.50;;;8.60;99.90;;;;;;5066569;28;20166;-81
2021/11/05 18:11:43;;;;;;;6.00;1.90;;;8.60;99.90;;;;;;5067815;28;20036;-80
2021/11/05 18:14:11;;;;;;;2.92;1.58;;;8.50;99.90;;;;;;5055214;28;20021;-80
2021/11/05 18:16:39;;;;;;;2.13;1.73;;;8.50;99.90;;;;;;5055342;28;20047;-80
2021/11/05 18:19:05;;;;;;;7.32;1.98;;;8.50;99.90;;;;;;5054296;28;20024;-81
2021/11/05 18:21:30;;;;;;;3.90;2.00;;;8.50;99.90;;;;;;5054013;28;20091;-81
2021/11/05 18:23:56;;;;;;;4.57;2.53;;;8.50;99.90;;;;;;5054531;28;20369;-80
2021/11/05 18:26:22;;;;;;;6.45;2.42;;;8.40;99.90;;;;;;5053544;28;20052;-81
2021/11/05 18:28:49;;;;;;;10.70;2.40;;;8.40;99.90;;;;;;5053881;28;20494;-81
2021/11/05 18:31:15;;;;;;;6.50;1.85;;;8.40;99.90;;;;;;5054404;28;20098;-80
2021/11/05 18:33:41;;;;;;;4.78;1.85;;;8.30;99.90;;;;;;5053649;28;20025;-80
2021/11/05 18:36:07;;;;;;;9.55;2.13;;;8.30;99.90;;;;;;5054754;28;20059;-82
2021/11/05 18:38:32;;;;;;;2.67;0.98;;;8.30;99.90;;;;;;5052580;28;20017;-81
2021/11/05 18:40:58;;;;;;;3.90;1.42;;;8.30;99.90;;;;;;5054109;28;20021;-82
2021/11/05 18:43:24;;;;;;;3.53;1.35;;;8.20;99.90;;;;;;5055178;28;20108;-79
2021/11/05 18:45:52;;;;;;;1.65;1.20;;;8.20;99.90;;;;;;5054918;28;20396;-82
2021/11/05 18:48:18;;;;;;;4.88;1.75;;;8.20;99.90;;;;;;5053670;28;20602;-80
2021/11/05 18:50:44;;;;;;;4.90;1.55;;;8.10;99.90;;;;;;5054017;28;20031;-80
2021/11/05 18:53:10;;;;;;;3.25;1.42;;;8.10;99.90;;;;;;5053453;28;20504;-81
2021/11/05 18:55:36;;;;;;;4.88;2.40;;;8.00;99.90;;;;;;5053388;28;20032;-81
2021/11/05 18:58:07;;;;;;;6.40;1.55;;;8.00;99.90;;;;;;5053056;28;20026;-80
2021/11/05 19:00:36;;;;;;;2.28;1.35;;;8.00;99.90;;;;;;5052704;28;20552;-82
2021/11/05 19:03:03;;;;;;;5.40;2.28;;;8.00;99.90;;;;;;5052220;28;20056;-82
2021/11/05 19:05:29;;;;;;;4.82;2.17;;;7.90;99.90;;;;;;5052982;28;20017;-81
2021/11/05 19:07:55;;;;;;;5.13;2.80;;;7.90;99.90;;;;;;5052712;28;20042;-81
2021/11/05 19:10:21;;;;;;;4.00;2.13;;;7.90;99.90;;;;;;5052804;28;20044;-80
2021/11/05 19:12:46;;;;;;;4.35;1.88;;;7.90;99.90;;;;;;5053303;28;20028;-81
2021/11/05 19:15:12;;;;;;;6.60;1.42;;;7.90;99.90;;;;;;5054317;28;20025;-81
2021/11/05 19:17:39;;;;;;;3.97;1.75;;;7.90;99.90;;;;;;5052725;28;20087;-79
2021/11/05 19:20:07;;;;;;;3.85;1.52;;;7.90;99.90;;;;;;5053129;28;20033;-80
2021/11/05 19:22:34;;;;;;;2.67;1.25;;;7.90;99.90;;;;;;5053113;28;20025;-81
2021/11/05 19:25:03;;;;;;;5.43;1.42;;;7.80;99.90;;;;;;5052583;28;20116;-79
2021/11/05 19:27:33;;;;;;;3.13;1.33;;;7.80;99.90;;;;;;5086475;28;20025;-82
2021/11/05 19:29:59;;;;;;;3.30;1.30;;;7.80;99.90;;;;;;5053231;28;20483;-79
2021/11/05 19:32:24;;;;;;;4.20;1.58;;;7.80;99.90;;;;;;5053458;28;20036;-81
2021/11/05 19:34:50;;;;;;;3.78;1.30;;;7.80;99.90;;;;;;5052927;28;20033;-79
2021/11/05 19:37:16;;;;;;;2.60;1.10;;;7.70;99.90;;;;;;5053057;28;20021;-80
2021/11/05 19:39:42;;;;;;;5.53;2.05;;;7.70;99.90;;;;;;5052712;28;20016;-80
2021/11/05 19:42:08;;;;;;;5.85;2.38;;;7.70;99.90;;;;;;5052396;28;20040;-81
2021/11/05 19:44:34;;;;;;;6.53;1.52;;;7.70;99.90;;;;;;5051394;28;20028;-80
2021/11/05 19:46:59;;;;;;;2.17;1.55;;;7.70;99.90;;;;;;5069793;28;20041;-80
2021/11/05 19:49:26;;;;;;;3.05;1.42;;;7.70;99.90;;;;;;5053338;28;20110;-80
2021/11/05 19:51:53;;;;;;;7.57;3.58;;;7.70;99.90;;;;;;5051498;28;20021;-80
2021/11/05 19:54:19;;;;;;;3.25;1.90;;;7.70;99.90;;;;;;5068911;28;20028;-80
2021/11/05 19:56:45;;;;;;;8.07;3.75;;;7.70;99.90;;;;;;5054043;28;20025;-80
2021/11/05 19:59:11;;;;;;;6.28;2.30;;;7.60;99.90;;;;;;5051789;28;20056;-80
2021/11/05 20:01:37;;;;;;;7.53;1.85;;;7.60;99.90;;;;;;5051913;28;20368;-82
2021/11/05 20:04:07;;;;;;;4.60;1.70;;;7.70;99.90;;;;;;5052864;28;20017;-82
2021/11/05 20:06:35;;;;;;;10.30;2.22;;;7.70;99.90;;;;;;5052957;28;20045;-81
2021/11/05 20:09:02;;;;;;;8.88;2.38;;;7.70;99.90;;;;;;5051913;28;20082;-80
2021/11/05 20:11:28;;;;;;;7.07;1.67;;;7.70;99.90;;;;;;5051737;28;20037;-80
2021/11/05 20:13:54;;;;;;;3.55;1.73;;;7.60;99.90;;;;;;5052755;28;20048;-81
2021/11/05 20:16:20;;;;;;;7.25;1.73;;;7.60;99.90;;;;;;5052382;28;20070;-80
2021/11/05 20:18:46;;;;;;;8.07;1.50;;;7.70;99.90;;;;;;5051921;28;20152;-83
2021/11/05 20:21:12;;;;;;;5.70;1.92;;;7.70;99.90;;;;;;5068782;28;20025;-83
2021/11/05 20:23:37;;;;;;;7.28;2.22;;;7.70;99.90;;;;;;5052279;28;20108;-82
2021/11/05 20:26:03;;;;;;;6.93;2.03;;;7.80;99.90;;;;;;5067512;28;20075;-80
2021/11/05 20:28:29;;;;;;;8.82;1.70;;;7.70;99.90;;;;;;5052797;28;20049;-80
2021/11/05 20:30:55;;;;;;;2.65;1.17;;;7.80;99.90;;;;;;5066247;28;20021;-82
2021/11/05 20:33:24;;;;;;;7.28;2.17;;;7.80;99.90;;;;;;5053661;28;20104;-81
2021/11/05 20:35:51;;;;;;;5.88;1.90;;;7.80;99.90;;;;;;5071494;28;20016;-79
2021/11/05 20:38:18;;;;;;;5.10;1.95;;;7.80;99.90;;;;;;5071905;28;20025;-80
2021/11/05 20:40:44;;;;;;;4.80;1.73;;;7.80;99.90;;;;;;5071524;28;20033;-80
2021/11/05 20:43:10;;;;;;;5.90;1.45;;;7.80;99.90;;;;;;5071506;28;20032;-83
2021/11/05 20:45:37;;;;;;;6.88;2.00;;;7.80;99.90;;;;;;5055460;28;20044;-82
2021/11/05 20:48:04;;;;;;;3.85;1.33;;;7.80;99.90;;;;;;5051877;28;20052;-82
2021/11/05 20:50:34;;;;;;;4.60;1.98;;;7.90;99.90;;;;;;5050901;28;20032;-82
2021/11/05 20:53:01;;;;;;;4.75;1.70;;;7.90;99.90;;;;;;5051327;28;20025;-81
2021/11/05 20:55:27;;;;;;;5.72;1.55;;;7.80;99.90;;;;;;5052510;28;20021;-81
2021/11/05 20:57:53;;;;;;;1.27;1.02;;;7.90;99.90;;;;;;5051099;28;20025;-83
2021/11/05 21:00:19;;;;;;;4.00;1.85;;;7.90;99.90;;;;;;5051352;28;20037;-81
2021/11/05 21:02:45;;;;;;;5.45;1.80;;;8.00;99.90;;;;;;5050268;28;20400;-82
2021/11/05 21:05:11;;;;;;;4.97;2.30;;;8.00;99.90;;;;;;5051841;28;20084;-84
2021/11/05 21:07:38;;;;;;;5.47;2.33;;;7.90;99.90;;;;;;5052135;28;20044;-81
2021/11/05 21:10:05;;;;;;;4.63;1.85;;;8.00;99.90;;;;;;5051602;28;20021;-81
2021/11/05 21:12:31;;;;;;;4.43;2.03;;;8.00;99.90;;;;;;5052187;28;20021;-81
2021/11/05 21:14:57;;;;;;;4.57;2.08;;;8.00;99.90;;;;;;5050945;28;20036;-82
2021/11/05 21:17:23;;;;;;;10.80;2.30;;;8.00;99.90;;;;;;5058061;28;20706;-81
2021/11/05 21:19:50;;;;;;;4.57;2.25;;;8.00;99.90;;;;;;5050408;28;20029;-82
2021/11/05 21:22:16;;;;;;;8.13;2.97;;;8.00;99.90;;;;;;5050109;28;20025;-81
2021/11/05 21:24:42;;;;;;;3.80;2.50;;;8.00;99.90;;;;;;5050991;28;20462;-80
2021/11/05 21:27:08;;;;;;;4.43;3.00;;;8.10;99.90;;;;;;5049421;28;20091;-81
2021/11/05 21:29:33;;;;;;;4.43;2.58;;;8.10;99.90;;;;;;5048866;28;20420;-81
2021/11/05 21:31:59;;;;;;;5.25;3.25;;;8.10;99.90;;;;;;5048794;28;20029;-82
2021/11/05 21:34:25;;;;;;;6.00;4.10;;;8.10;99.90;;;;;;5048863;28;20455;-80
2021/11/05 21:36:51;;;;;;;5.68;3.28;;;8.10;99.90;;;;;;5049116;28;20025;-81
2021/11/05 21:39:18;;;;;;;7.85;3.10;;;8.20;99.90;;;;;;5050182;28;20025;-81
2021/11/05 21:41:46;;;;;;;6.80;3.38;;;8.20;99.90;;;;;;5052462;28;20021;-82
2021/11/05 21:44:12;;;;;;;6.95;2.83;;;8.20;99.90;;;;;;5051348;28;20032;-82
2021/11/05 21:46:38;;;;;;;9.02;3.83;;;8.20;99.90;;;;;;5052348;28;20025;-81
2021/11/05 21:49:05;;;;;;;4.72;3.97;;;8.20;99.90;;;;;;5052432;28;20057;-82
2021/11/05 21:51:31;;;;;;;8.23;3.47;;;8.20;99.90;;;;;;5053662;28;20028;-81
2021/11/05 21:53:56;;;;;;;8.82;4.57;;;8.20;99.90;;;;;;5056010;28;20502;-81
2021/11/05 21:56:22;;;;;;;7.13;4.13;;;8.30;99.90;;;;;;5068911;28;20025;-81
2021/11/05 21:58:50;;;;;;;6.95;3.88;;;8.30;99.90;;;;;;5055484;28;20624;-81
2021/11/05 22:01:16;;;;;;;9.45;4.93;;;8.30;99.90;;;;;;5053911;28;20037;-81
2021/11/05 22:03:42;;;;;;;8.80;4.55;;;8.30;99.90;;;;;;5055272;28;20024;-81
2021/11/05 22:06:08;;;;;;;6.00;4.70;;;8.30;99.90;;;;;;5054325;28;20021;-81
